sensor_id;sensor_type;location;lat;lon;timestamp;pressure;altitude;pressure_sealevel;temperature;humidity
54872;BME280;43914;57.680;11.982;2023-02-19T00:01:27;100058.25;;;0.76;66.62
54872;BME280;43914;57.680;11.982;2023-02-19T00:03:55;100058.52;;;0.75;66.74
54872;BME280;43914;57.680;11.982;2023-02-19T00:06:23;100063.86;;;0.74;67.00
54872;BME280;43914;57.680;11.982;2023-02-19T00:08:49;100062.43;;;0.73;66.91
54872;BME280;43914;57.680;11.982;2023-02-19T00:11:17;100066.60;;;0.73;66.94
54872;BME280;43914;57.680;11.982;2023-02-19T00:13:45;100062.11;;;0.68;67.12
54872;BME280;43914;57.680;11.982;2023-02-19T00:16:12;100069.55;;;0.72;67.19
54872;BME280;43914;57.680;11.982;2023-02-19T00:18:38;100071.16;;;0.72;67.41
54872;BME280;43914;57.680;11.982;2023-02-19T00:21:03;100070.80;;;0.72;67.41
54872;BME280;43914;57.680;11.982;2023-02-19T00:23:29;100072.98;;;0.71;67.54
54872;BME280;43914;57.680;11.982;2023-02-19T00:25:55;100074.23;;;0.71;67.79
54872;BME280;43914;57.680;11.982;2023-02-19T00:28:21;100073.64;;;0.69;67.95
54872;BME280;43914;57.680;11.982;2023-02-19T00:30:47;100072.91;;;0.70;68.02
54872;BME280;43914;57.680;11.982;2023-02-19T00:33:14;100071.34;;;0.69;68.24
54872;BME280;43914;57.680;11.982;2023-02-19T00:35:40;100066.60;;;0.67;68.36
54872;BME280;43914;57.680;11.982;2023-02-19T00:38:06;100068.27;;;0.66;68.44
54872;BME280;43914;57.680;11.982;2023-02-19T00:40:31;100063.36;;;0.66;68.63
54872;BME280;43914;57.680;11.982;2023-02-19T00:42:57;100069.20;;;0.66;68.78
54872;BME280;43914;57.680;11.982;2023-02-19T00:45:22;100069.21;;;0.64;68.78
54872;BME280;43914;57.680;11.982;2023-02-19T00:47:48;100067.89;;;0.63;68.96
54872;BME280;43914;57.680;11.982;2023-02-19T00:50:14;100070.06;;;0.62;69.02
54872;BME280;43914;57.680;11.982;2023-02-19T00:52:39;100064.92;;;0.63;68.88
54872;BME280;43914;57.680;11.982;2023-02-19T00:55:05;100064.23;;;0.62;69.02
54872;BME280;43914;57.680;11.982;2023-02-19T00:57:31;100062.98;;;0.60;69.07
54872;BME280;43914;57.680;11.982;2023-02-19T00:59:56;100066.30;;;0.61;69.11
54872;BME280;43914;57.680;11.982;2023-02-19T01:02:22;100062.37;;;0.59;69.35
54872;BME280;43914;57.680;11.982;2023-02-19T01:04:47;100065.70;;;0.60;69.34
54872;BME280;43914;57.680;11.982;2023-02-19T01:07:13;100069.66;;;0.58;69.32
54872;BME280;43914;57.680;11.982;2023-02-19T01:09:38;100071.45;;;0.58;69.46
54872;BME280;43914;57.680;11.982;2023-02-19T01:12:04;100067.36;;;0.59;69.43
54872;BME280;43914;57.680;11.982;2023-02-19T01:14:30;100069.14;;;0.59;69.56
54872;BME280;43914;57.680;11.982;2023-02-19T01:16:56;100054.29;;;0.53;69.54
54872;BME280;43914;57.680;11.982;2023-02-19T01:19:22;100062.39;;;0.55;69.64
54872;BME280;43914;57.680;11.982;2023-02-19T01:21:48;100062.71;;;0.53;69.64
54872;BME280;43914;57.680;11.982;2023-02-19T01:24:13;100064.02;;;0.51;69.74
54872;BME280;43914;57.680;11.982;2023-02-19T01:26:41;100067.02;;;0.51;69.68
54872;BME280;43914;57.680;11.982;2023-02-19T01:29:08;100062.94;;;0.49;69.39
54872;BME280;43914;57.680;11.982;2023-02-19T01:31:34;100066.82;;;0.53;69.45
54872;BME280;43914;57.680;11.982;2023-02-19T01:34:02;100068.98;;;0.54;69.05
54872;BME280;43914;57.680;11.982;2023-02-19T01:36:29;100075.28;;;0.55;69.21
54872;BME280;43914;57.680;11.982;2023-02-19T01:38:59;100076.98;;;0.53;69.30
54872;BME280;43914;57.680;11.982;2023-02-19T01:41:24;100080.23;;;0.52;69.40
54872;BME280;43914;57.680;11.982;2023-02-19T01:44:07;100081.66;;;0.52;69.47
54872;BME280;43914;57.680;11.982;2023-02-19T01:46:35;100080.84;;;0.50;69.50
54872;BME280;43914;57.680;11.982;2023-02-19T01:51:34;100084.79;;;0.47;69.70
54872;BME280;43914;57.680;11.982;2023-02-19T01:54:03;100079.45;;;0.45;69.48
54872;BME280;43914;57.680;11.982;2023-02-19T01:56:31;100078.64;;;0.44;69.39
54872;BME280;43914;57.680;11.982;2023-02-19T01:58:59;100079.50;;;0.42;69.55
54872;BME280;43914;57.680;11.982;2023-02-19T02:01:26;100080.73;;;0.41;69.44
54872;BME280;43914;57.680;11.982;2023-02-19T02:03:51;100084.23;;;0.39;69.50
54872;BME280;43914;57.680;11.982;2023-02-19T02:06:24;100087.53;;;0.37;69.61
54872;BME280;43914;57.680;11.982;2023-02-19T02:08:54;100090.63;;;0.36;69.39
54872;BME280;43914;57.680;11.982;2023-02-19T02:11:41;100089.52;;;0.35;69.31
54872;BME280;43914;57.680;11.982;2023-02-19T02:14:10;100085.02;;;0.34;69.14
54872;BME280;43914;57.680;11.982;2023-02-19T02:16:44;100087.49;;;0.34;69.16
54872;BME280;43914;57.680;11.982;2023-02-19T02:25:27;100098.23;;;0.26;68.93
54872;BME280;43914;57.680;11.982;2023-02-19T02:36:22;100103.95;;;0.14;68.68
54872;BME280;43914;57.680;11.982;2023-02-19T02:38:50;100101.98;;;0.11;68.71
54872;BME280;43914;57.680;11.982;2023-02-19T02:41:19;100103.74;;;0.09;68.78
54872;BME280;43914;57.680;11.982;2023-02-19T02:43:45;100108.78;;;0.07;69.16
54872;BME280;43914;57.680;11.982;2023-02-19T02:46:20;100111.70;;;0.06;69.08
54872;BME280;43914;57.680;11.982;2023-02-19T02:48:51;100114.25;;;0.03;69.22
54872;BME280;43914;57.680;11.982;2023-02-19T02:51:45;100118.68;;;0.01;69.16
54872;BME280;43914;57.680;11.982;2023-02-19T02:54:31;100119.78;;;-0.02;69.29
54872;BME280;43914;57.680;11.982;2023-02-19T02:57:17;100121.15;;;-0.04;69.31
54872;BME280;43914;57.680;11.982;2023-02-19T02:59:44;100127.64;;;-0.03;69.04
54872;BME280;43914;57.680;11.982;2023-02-19T03:02:22;100129.77;;;-0.06;69.07
54872;BME280;43914;57.680;11.982;2023-02-19T03:08:30;100135.98;;;-0.08;68.92
54872;BME280;43914;57.680;11.982;2023-02-19T03:11:01;100137.14;;;-0.09;69.04
54872;BME280;43914;57.680;11.982;2023-02-19T03:13:52;100136.84;;;-0.10;68.90
54872;BME280;43914;57.680;11.982;2023-02-19T03:16:41;100132.63;;;-0.10;68.69
54872;BME280;43914;57.680;11.982;2023-02-19T03:19:30;100141.45;;;-0.10;68.32
54872;BME280;43914;57.680;11.982;2023-02-19T03:22:00;100147.31;;;-0.11;67.97
54872;BME280;43914;57.680;11.982;2023-02-19T03:24:39;100152.73;;;-0.10;67.02
54872;BME280;43914;57.680;11.982;2023-02-19T03:27:26;100158.42;;;-0.07;66.71
54872;BME280;43914;57.680;11.982;2023-02-19T03:29:55;100164.84;;;-0.06;66.65
54872;BME280;43914;57.680;11.982;2023-02-19T03:32:51;100164.20;;;-0.05;66.02
54872;BME280;43914;57.680;11.982;2023-02-19T03:35:24;100158.30;;;-0.02;65.39
54872;BME280;43914;57.680;11.982;2023-02-19T03:40:21;100164.85;;;0.03;65.27
54872;BME280;43914;57.680;11.982;2023-02-19T03:43:14;100170.84;;;0.05;64.58
54872;BME280;43914;57.680;11.982;2023-02-19T03:46:02;100180.23;;;0.06;64.19
54872;BME280;43914;57.680;11.982;2023-02-19T03:48:33;100182.65;;;0.07;63.78
54872;BME280;43914;57.680;11.982;2023-02-19T03:57:10;100189.90;;;0.06;63.62
54872;BME280;43914;57.680;11.982;2023-02-19T04:03:01;100185.29;;;0.05;63.99
54872;BME280;43914;57.680;11.982;2023-02-19T04:05:34;100184.18;;;0.03;63.79
54872;BME280;43914;57.680;11.982;2023-02-19T04:08:06;100188.23;;;0.05;64.02
54872;BME280;43914;57.680;11.982;2023-02-19T04:10:34;100191.37;;;0.06;64.09
54872;BME280;43914;57.680;11.982;2023-02-19T04:13:35;100195.27;;;0.05;63.80
54872;BME280;43914;57.680;11.982;2023-02-19T04:16:05;100203.67;;;0.06;64.00
54872;BME280;43914;57.680;11.982;2023-02-19T04:18:35;100203.94;;;0.05;64.07
54872;BME280;43914;57.680;11.982;2023-02-19T04:21:04;100206.33;;;0.04;63.91
54872;BME280;43914;57.680;11.982;2023-02-19T04:23:37;100209.63;;;0.02;64.00
54872;BME280;43914;57.680;11.982;2023-02-19T04:26:07;100211.77;;;0.02;64.11
54872;BME280;43914;57.680;11.982;2023-02-19T04:28:34;100208.77;;;-0.00;64.34
54872;BME280;43914;57.680;11.982;2023-02-19T04:31:00;100209.98;;;-0.03;64.48
54872;BME280;43914;57.680;11.982;2023-02-19T04:33:26;100214.30;;;-0.06;64.58
54872;BME280;43914;57.680;11.982;2023-02-19T04:35:51;100220.17;;;-0.08;64.79
54872;BME280;43914;57.680;11.982;2023-02-19T04:38:18;100227.77;;;-0.11;64.93
54872;BME280;43914;57.680;11.982;2023-02-19T04:40:43;100229.02;;;-0.13;64.92
54872;BME280;43914;57.680;11.982;2023-02-19T04:43:09;100231.30;;;-0.15;64.92
54872;BME280;43914;57.680;11.982;2023-02-19T04:45:36;100231.38;;;-0.18;65.12
54872;BME280;43914;57.680;11.982;2023-02-19T04:48:02;100235.20;;;-0.22;65.12
54872;BME280;43914;57.680;11.982;2023-02-19T04:50:28;100238.11;;;-0.23;65.40
54872;BME280;43914;57.680;11.982;2023-02-19T04:52:53;100235.08;;;-0.25;65.23
54872;BME280;43914;57.680;11.982;2023-02-19T04:55:19;100243.02;;;-0.27;65.45
54872;BME280;43914;57.680;11.982;2023-02-19T04:57:44;100243.01;;;-0.29;65.57
54872;BME280;43914;57.680;11.982;2023-02-19T05:00:11;100239.98;;;-0.31;65.69
54872;BME280;43914;57.680;11.982;2023-02-19T05:02:36;100242.21;;;-0.37;65.73
54872;BME280;43914;57.680;11.982;2023-02-19T05:05:03;100249.88;;;-0.36;66.01
54872;BME280;43914;57.680;11.982;2023-02-19T05:07:28;100254.72;;;-0.37;66.29
54872;BME280;43914;57.680;11.982;2023-02-19T05:09:54;100257.75;;;-0.38;66.53
54872;BME280;43914;57.680;11.982;2023-02-19T05:12:19;100262.51;;;-0.37;66.55
54872;BME280;43914;57.680;11.982;2023-02-19T05:14:45;100263.69;;;-0.39;66.58
54872;BME280;43914;57.680;11.982;2023-02-19T05:17:10;100263.20;;;-0.39;66.78
54872;BME280;43914;57.680;11.982;2023-02-19T05:19:36;100269.38;;;-0.40;66.78
54872;BME280;43914;57.680;11.982;2023-02-19T05:22:01;100270.10;;;-0.40;66.84
54872;BME280;43914;57.680;11.982;2023-02-19T05:24:27;100270.81;;;-0.40;66.53
54872;BME280;43914;57.680;11.982;2023-02-19T05:26:54;100271.09;;;-0.39;66.65
54872;BME280;43914;57.680;11.982;2023-02-19T05:29:19;100270.64;;;-0.38;66.64
54872;BME280;43914;57.680;11.982;2023-02-19T05:31:45;100268.14;;;-0.38;66.61
54872;BME280;43914;57.680;11.982;2023-02-19T05:34:10;100271.55;;;-0.36;66.57
54872;BME280;43914;57.680;11.982;2023-02-19T05:36:36;100276.24;;;-0.35;66.27
54872;BME280;43914;57.680;11.982;2023-02-19T05:39:02;100277.56;;;-0.35;66.21
54872;BME280;43914;57.680;11.982;2023-02-19T05:41:30;100277.16;;;-0.34;66.37
54872;BME280;43914;57.680;11.982;2023-02-19T05:43:56;100281.63;;;-0.32;66.19
54872;BME280;43914;57.680;11.982;2023-02-19T05:46:25;100284.45;;;-0.32;66.39
54872;BME280;43914;57.680;11.982;2023-02-19T05:48:52;100294.42;;;-0.32;66.25
54872;BME280;43914;57.680;11.982;2023-02-19T05:51:21;100296.10;;;-0.33;66.04
54872;BME280;43914;57.680;11.982;2023-02-19T05:53:47;100299.13;;;-0.33;66.00
54872;BME280;43914;57.680;11.982;2023-02-19T05:58:51;100307.70;;;-0.35;66.08
54872;BME280;43914;57.680;11.982;2023-02-19T06:01:18;100306.59;;;-0.36;65.94
54872;BME280;43914;57.680;11.982;2023-02-19T06:03:44;100312.28;;;-0.37;66.10
54872;BME280;43914;57.680;11.982;2023-02-19T06:06:13;100317.95;;;-0.37;66.11
54872;BME280;43914;57.680;11.982;2023-02-19T06:08:39;100324.17;;;-0.38;66.06
54872;BME280;43914;57.680;11.982;2023-02-19T06:11:04;100324.77;;;-0.39;66.34
54872;BME280;43914;57.680;11.982;2023-02-19T06:13:29;100326.23;;;-0.37;66.31
54872;BME280;43914;57.680;11.982;2023-02-19T06:15:55;100327.61;;;-0.37;66.33
54872;BME280;43914;57.680;11.982;2023-02-19T06:18:21;100330.62;;;-0.37;66.20
54872;BME280;43914;57.680;11.982;2023-02-19T06:20:46;100331.81;;;-0.39;66.30
54872;BME280;43914;57.680;11.982;2023-02-19T06:23:12;100330.61;;;-0.42;66.34
54872;BME280;43914;57.680;11.982;2023-02-19T06:25:37;100327.40;;;-0.43;66.04
54872;BME280;43914;57.680;11.982;2023-02-19T06:28:03;100337.28;;;-0.39;66.07
54872;BME280;43914;57.680;11.982;2023-02-19T06:30:29;100339.94;;;-0.37;65.94
54872;BME280;43914;57.680;11.982;2023-02-19T06:32:55;100341.94;;;-0.38;65.96
54872;BME280;43914;57.680;11.982;2023-02-19T06:35:20;100327.38;;;-0.47;65.84
54872;BME280;43914;57.680;11.982;2023-02-19T06:37:47;100348.38;;;-0.37;65.99
54872;BME280;43914;57.680;11.982;2023-02-19T06:40:13;100350.61;;;-0.36;66.22
54872;BME280;43914;57.680;11.982;2023-02-19T06:42:39;100351.19;;;-0.37;66.19
54872;BME280;43914;57.680;11.982;2023-02-19T06:45:04;100358.38;;;-0.37;66.17
54872;BME280;43914;57.680;11.982;2023-02-19T06:47:31;100357.86;;;-0.37;65.90
54872;BME280;43914;57.680;11.982;2023-02-19T06:49:57;100352.86;;;-0.36;65.93
54872;BME280;43914;57.680;11.982;2023-02-19T06:52:23;100342.52;;;-0.34;66.06
54872;BME280;43914;57.680;11.982;2023-02-19T06:54:49;100345.71;;;-0.33;66.11
54872;BME280;43914;57.680;11.982;2023-02-19T06:57:14;100351.16;;;-0.32;65.94
54872;BME280;43914;57.680;11.982;2023-02-19T06:59:40;100356.06;;;-0.30;65.96
54872;BME280;43914;57.680;11.982;2023-02-19T07:02:06;100358.73;;;-0.30;66.03
54872;BME280;43914;57.680;11.982;2023-02-19T07:04:31;100362.59;;;-0.30;66.05
54872;BME280;43914;57.680;11.982;2023-02-19T07:06:57;100365.02;;;-0.32;66.11
54872;BME280;43914;57.680;11.982;2023-02-19T07:09:24;100366.16;;;-0.31;66.30
54872;BME280;43914;57.680;11.982;2023-02-19T07:11:49;100359.88;;;-0.29;66.38
54872;BME280;43914;57.680;11.982;2023-02-19T07:14:16;100362.77;;;-0.27;66.43
54872;BME280;43914;57.680;11.982;2023-02-19T07:16:42;100363.89;;;-0.26;66.45
54872;BME280;43914;57.680;11.982;2023-02-19T07:19:09;100368.17;;;-0.25;66.35
54872;BME280;43914;57.680;11.982;2023-02-19T07:21:35;100381.50;;;-0.24;66.43
54872;BME280;43914;57.680;11.982;2023-02-19T07:24:03;100382.66;;;-0.21;66.56
54872;BME280;43914;57.680;11.982;2023-02-19T07:26:29;100382.21;;;-0.18;66.54
54872;BME280;43914;57.680;11.982;2023-02-19T07:28:55;100381.77;;;-0.16;66.54
54872;BME280;43914;57.680;11.982;2023-02-19T07:31:21;100386.09;;;-0.13;66.57
54872;BME280;43914;57.680;11.982;2023-02-19T07:33:47;100390.50;;;-0.11;66.72
54872;BME280;43914;57.680;11.982;2023-02-19T07:36:14;100385.23;;;-0.09;66.89
54872;BME280;43914;57.680;11.982;2023-02-19T07:38:41;100384.85;;;-0.02;68.46
54872;BME280;43914;57.680;11.982;2023-02-19T07:41:07;100385.94;;;0.07;67.69
54872;BME280;43914;57.680;11.982;2023-02-19T07:43:34;100395.29;;;0.11;67.22
54872;BME280;43914;57.680;11.982;2023-02-19T07:46:11;100396.34;;;0.17;67.08
54872;BME280;43914;57.680;11.982;2023-02-19T07:48:38;100388.17;;;0.20;66.86
54872;BME280;43914;57.680;11.982;2023-02-19T07:51:06;100390.66;;;0.24;66.70
54872;BME280;43914;57.680;11.982;2023-02-19T07:53:33;100389.81;;;0.30;67.02
54872;BME280;43914;57.680;11.982;2023-02-19T07:56:03;100386.85;;;0.37;67.03
54872;BME280;43914;57.680;11.982;2023-02-19T07:58:30;100389.59;;;0.44;66.96
54872;BME280;43914;57.680;11.982;2023-02-19T08:00:56;100399.91;;;0.49;66.66
54872;BME280;43914;57.680;11.982;2023-02-19T08:03:22;100401.56;;;0.55;66.63
54872;BME280;43914;57.680;11.982;2023-02-19T08:05:48;100409.89;;;0.63;66.59
54872;BME280;43914;57.680;11.982;2023-02-19T08:08:16;100414.02;;;0.68;66.31
54872;BME280;43914;57.680;11.982;2023-02-19T08:10:41;100417.05;;;0.73;66.05
54872;BME280;43914;57.680;11.982;2023-02-19T08:13:26;100418.84;;;0.79;65.77
54872;BME280;43914;57.680;11.982;2023-02-19T08:16:08;100419.30;;;0.82;65.68
54872;BME280;43914;57.680;11.982;2023-02-19T08:18:34;100422.59;;;0.86;65.69
54872;BME280;43914;57.680;11.982;2023-02-19T08:21:00;100422.67;;;0.92;65.85
54872;BME280;43914;57.680;11.982;2023-02-19T08:23:27;100420.52;;;0.95;65.73
54872;BME280;43914;57.680;11.982;2023-02-19T08:25:56;100422.48;;;0.96;65.59
54872;BME280;43914;57.680;11.982;2023-02-19T08:28:22;100421.66;;;0.98;65.14
54872;BME280;43914;57.680;11.982;2023-02-19T08:30:49;100423.95;;;1.00;65.21
54872;BME280;43914;57.680;11.982;2023-02-19T08:33:17;100429.95;;;1.02;65.06
54872;BME280;43914;57.680;11.982;2023-02-19T08:35:46;100438.33;;;1.05;64.86
54872;BME280;43914;57.680;11.982;2023-02-19T08:38:13;100436.98;;;1.08;64.76
54872;BME280;43914;57.680;11.982;2023-02-19T08:40:41;100436.73;;;1.13;64.51
54872;BME280;43914;57.680;11.982;2023-02-19T08:43:09;100438.65;;;1.16;64.05
54872;BME280;43914;57.680;11.982;2023-02-19T08:45:40;100445.83;;;1.21;63.90
54872;BME280;43914;57.680;11.982;2023-02-19T08:48:07;100451.66;;;1.27;63.74
54872;BME280;43914;57.680;11.982;2023-02-19T08:50:33;100447.83;;;1.35;63.85
54872;BME280;43914;57.680;11.982;2023-02-19T08:53:01;100450.75;;;1.40;63.49
54872;BME280;43914;57.680;11.982;2023-02-19T08:55:26;100440.03;;;1.35;62.97
54872;BME280;43914;57.680;11.982;2023-02-19T08:57:52;100461.52;;;1.51;62.72
54872;BME280;43914;57.680;11.982;2023-02-19T09:00:18;100460.41;;;1.55;62.14
54872;BME280;43914;57.680;11.982;2023-02-19T09:02:45;100458.49;;;1.57;61.70
54872;BME280;43914;57.680;11.982;2023-02-19T09:05:11;100463.38;;;1.62;61.32
54872;BME280;43914;57.680;11.982;2023-02-19T09:07:37;100458.34;;;1.65;60.82
54872;BME280;43914;57.680;11.982;2023-02-19T09:10:03;100462.68;;;1.70;60.64
54872;BME280;43914;57.680;11.982;2023-02-19T09:12:29;100465.50;;;1.76;60.99
54872;BME280;43914;57.680;11.982;2023-02-19T09:14:54;100464.83;;;1.84;60.94
54872;BME280;43914;57.680;11.982;2023-02-19T09:17:20;100464.58;;;1.95;60.89
54872;BME280;43914;57.680;11.982;2023-02-19T09:19:45;100468.89;;;2.08;60.09
54872;BME280;43914;57.680;11.982;2023-02-19T09:22:11;100468.72;;;2.20;60.41
54872;BME280;43914;57.680;11.982;2023-02-19T09:24:37;100468.65;;;2.31;59.63
54872;BME280;43914;57.680;11.982;2023-02-19T09:27:02;100478.33;;;2.40;58.49
54872;BME280;43914;57.680;11.982;2023-02-19T09:29:28;100475.41;;;2.62;62.59
54872;BME280;43914;57.680;11.982;2023-02-19T09:31:58;100476.73;;;2.79;59.09
54872;BME280;43914;57.680;11.982;2023-02-19T09:34:25;100475.92;;;2.79;57.39
54872;BME280;43914;57.680;11.982;2023-02-19T09:36:51;100480.54;;;2.81;57.41
54872;BME280;43914;57.680;11.982;2023-02-19T09:39:17;100478.31;;;2.80;56.59
54872;BME280;43914;57.680;11.982;2023-02-19T09:41:55;100479.11;;;2.81;56.65
54872;BME280;43914;57.680;11.982;2023-02-19T09:44:43;100476.16;;;2.82;56.80
54872;BME280;43914;57.680;11.982;2023-02-19T09:47:18;100479.02;;;2.83;56.74
54872;BME280;43914;57.680;11.982;2023-02-19T09:49:47;100481.98;;;2.84;56.46
54872;BME280;43914;57.680;11.982;2023-02-19T09:52:46;100486.23;;;2.84;56.25
54872;BME280;43914;57.680;11.982;2023-02-19T09:55:33;100487.87;;;2.80;56.26
54872;BME280;43914;57.680;11.982;2023-02-19T09:58:05;100488.20;;;2.76;56.16
54872;BME280;43914;57.680;11.982;2023-02-19T10:00:33;100495.16;;;2.75;55.66
54872;BME280;43914;57.680;11.982;2023-02-19T10:03:05;100503.88;;;2.79;55.67
54872;BME280;43914;57.680;11.982;2023-02-19T10:05:37;100500.40;;;2.80;56.07
54872;BME280;43914;57.680;11.982;2023-02-19T10:08:08;100509.20;;;2.90;57.94
54872;BME280;43914;57.680;11.982;2023-02-19T10:10:37;100513.27;;;3.21;58.63
54872;BME280;43914;57.680;11.982;2023-02-19T10:13:17;100518.46;;;3.27;56.33
54872;BME280;43914;57.680;11.982;2023-02-19T10:15:47;100517.41;;;3.28;55.38
54872;BME280;43914;57.680;11.982;2023-02-19T10:18:16;100515.31;;;3.24;54.85
54872;BME280;43914;57.680;11.982;2023-02-19T10:20:41;100519.99;;;3.20;55.08
54872;BME280;43914;57.680;11.982;2023-02-19T10:23:10;100529.58;;;3.17;55.45
54872;BME280;43914;57.680;11.982;2023-02-19T10:25:42;100521.60;;;3.23;56.11
54872;BME280;43914;57.680;11.982;2023-02-19T10:28:13;100518.70;;;3.32;56.24
54872;BME280;43914;57.680;11.982;2023-02-19T10:30:40;100520.16;;;3.39;55.88
54872;BME280;43914;57.680;11.982;2023-02-19T10:33:14;100525.11;;;3.41;55.77
54872;BME280;43914;57.680;11.982;2023-02-19T10:38:16;100522.14;;;3.62;56.67
54872;BME280;43914;57.680;11.982;2023-02-19T10:40:43;100517.71;;;3.71;57.36
54872;BME280;43914;57.680;11.982;2023-02-19T10:43:22;100522.58;;;3.84;57.33
54872;BME280;43914;57.680;11.982;2023-02-19T10:45:56;100520.17;;;3.94;57.19
54872;BME280;43914;57.680;11.982;2023-02-19T10:48:27;100518.32;;;4.10;57.26
54872;BME280;43914;57.680;11.982;2023-02-19T10:50:55;100512.60;;;4.14;56.48
54872;BME280;43914;57.680;11.982;2023-02-19T10:53:40;100523.48;;;4.23;55.44
54872;BME280;43914;57.680;11.982;2023-02-19T10:56:24;100498.80;;;4.08;55.56
54872;BME280;43914;57.680;11.982;2023-02-19T10:58:53;100525.64;;;4.30;55.54
54872;BME280;43914;57.680;11.982;2023-02-19T11:01:23;100529.23;;;4.35;55.83
54872;BME280;43914;57.680;11.982;2023-02-19T11:04:15;100529.19;;;4.38;55.80
54872;BME280;43914;57.680;11.982;2023-02-19T11:06:42;100525.11;;;4.32;56.32
54872;BME280;43914;57.680;11.982;2023-02-19T11:09:29;100526.64;;;4.36;56.92
54872;BME280;43914;57.680;11.982;2023-02-19T11:12:01;100528.92;;;4.40;57.22
54872;BME280;43914;57.680;11.982;2023-02-19T11:14:32;100526.95;;;4.39;57.18
54872;BME280;43914;57.680;11.982;2023-02-19T11:17:00;100521.73;;;4.39;57.76
54872;BME280;43914;57.680;11.982;2023-02-19T11:19:44;100513.67;;;4.45;58.07
54872;BME280;43914;57.680;11.982;2023-02-19T11:25:20;100512.92;;;4.50;57.98
54872;BME280;43914;57.680;11.982;2023-02-19T11:27:54;100516.74;;;4.47;58.24
54872;BME280;43914;57.680;11.982;2023-02-19T11:32:54;100523.95;;;4.48;59.05
54872;BME280;43914;57.680;11.982;2023-02-19T11:35:22;100526.25;;;4.46;59.52
54872;BME280;43914;57.680;11.982;2023-02-19T11:38:00;100526.95;;;4.42;59.87
54872;BME280;43914;57.680;11.982;2023-02-19T11:49:53;100516.27;;;4.22;63.70
54872;BME280;43914;57.680;11.982;2023-02-19T12:04:34;100516.71;;;3.82;67.16
54872;BME280;43914;57.680;11.982;2023-02-19T12:24:10;100485.55;;;3.48;73.02
54872;BME280;43914;57.680;11.982;2023-02-19T12:32:10;100483.81;;;3.45;73.69
54872;BME280;43914;57.680;11.982;2023-02-19T12:39:50;100479.16;;;3.48;74.23
54872;BME280;43914;57.680;11.982;2023-02-19T12:42:42;100478.74;;;3.49;74.73
54872;BME280;43914;57.680;11.982;2023-02-19T12:48:00;100474.16;;;3.48;75.31
54872;BME280;43914;57.680;11.982;2023-02-19T12:50:29;100475.63;;;3.48;75.74
54872;BME280;43914;57.680;11.982;2023-02-19T12:53:04;100465.90;;;3.46;75.99
54872;BME280;43914;57.680;11.982;2023-02-19T12:55:38;100457.39;;;3.43;76.65
54872;BME280;43914;57.680;11.982;2023-02-19T12:58:10;100447.90;;;3.43;77.10
54872;BME280;43914;57.680;11.982;2023-02-19T13:00:42;100452.95;;;3.42;77.80
54872;BME280;43914;57.680;11.982;2023-02-19T13:06:18;100446.80;;;3.34;79.18
54872;BME280;43914;57.680;11.982;2023-02-19T13:08:51;100447.61;;;3.23;79.79
54872;BME280;43914;57.680;11.982;2023-02-19T13:11:34;100441.40;;;3.14;81.30
54872;BME280;43914;57.680;11.982;2023-02-19T13:17:19;100402.38;;;3.05;84.37
54872;BME280;43914;57.680;11.982;2023-02-19T13:19:44;100402.16;;;2.96;85.64
54872;BME280;43914;57.680;11.982;2023-02-19T13:22:21;100404.20;;;2.95;87.21
54872;BME280;43914;57.680;11.982;2023-02-19T13:25:10;100404.35;;;2.95;88.20
54872;BME280;43914;57.680;11.982;2023-02-19T13:30:25;100403.81;;;2.95;90.44
54872;BME280;43914;57.680;11.982;2023-02-19T13:36:14;100411.29;;;3.05;92.60
54872;BME280;43914;57.680;11.982;2023-02-19T13:38:43;100413.23;;;3.08;93.00
54872;BME280;43914;57.680;11.982;2023-02-19T13:41:25;100399.36;;;3.09;92.97
54872;BME280;43914;57.680;11.982;2023-02-19T13:44:01;100394.30;;;3.12;93.91
54872;BME280;43914;57.680;11.982;2023-02-19T13:46:38;100390.38;;;3.18;94.64
54872;BME280;43914;57.680;11.982;2023-02-19T13:52:00;100383.09;;;3.31;96.21
54872;BME280;43914;57.680;11.982;2023-02-19T13:54:32;100378.27;;;3.38;97.40
54872;BME280;43914;57.680;11.982;2023-02-19T13:59:49;100372.38;;;3.50;100.00
54872;BME280;43914;57.680;11.982;2023-02-19T14:02:28;100373.35;;;3.58;100.00
54872;BME280;43914;57.680;11.982;2023-02-19T14:09:52;100376.06;;;3.87;100.00
54872;BME280;43914;57.680;11.982;2023-02-19T14:12:20;100371.80;;;3.94;100.00
54872;BME280;43914;57.680;11.982;2023-02-19T14:14:46;100372.20;;;4.01;100.00
54872;BME280;43914;57.680;11.982;2023-02-19T14:17:27;100365.14;;;4.06;100.00
54872;BME280;43914;57.680;11.982;2023-02-19T14:23:00;100358.13;;;4.18;100.00
54872;BME280;43914;57.680;11.982;2023-02-19T14:25:45;100362.70;;;4.22;100.00
54872;BME280;43914;57.680;11.982;2023-02-19T14:28:17;100371.66;;;4.29;100.00
54872;BME280;43914;57.680;11.982;2023-02-19T14:34:04;100361.66;;;4.38;100.00
54872;BME280;43914;57.680;11.982;2023-02-19T14:39:09;100374.58;;;4.47;100.00
54872;BME280;43914;57.680;11.982;2023-02-19T14:41:38;100389.42;;;4.52;100.00
54872;BME280;43914;57.680;11.982;2023-02-19T14:44:11;100386.23;;;4.55;100.00
54872;BME280;43914;57.680;11.982;2023-02-19T14:47:06;100394.67;;;4.58;100.00
54872;BME280;43914;57.680;11.982;2023-02-19T14:49:57;100397.05;;;4.60;100.00
54872;BME280;43914;57.680;11.982;2023-02-19T14:52:34;100389.98;;;4.64;100.00
54872;BME280;43914;57.680;11.982;2023-02-19T14:57:40;100397.91;;;4.68;100.00
54872;BME280;43914;57.680;11.982;2023-02-19T15:00:25;100398.56;;;4.71;100.00
54872;BME280;43914;57.680;11.982;2023-02-19T15:02:53;100397.23;;;4.71;100.00
54872;BME280;43914;57.680;11.982;2023-02-19T15:05:40;100382.41;;;4.72;100.00
54872;BME280;43914;57.680;11.982;2023-02-19T15:08:17;100388.41;;;4.74;100.00
54872;BME280;43914;57.680;11.982;2023-02-19T15:10:48;100385.90;;;4.76;100.00